Diomede, Alaska
Current Conditions -  °F | °C
As of 2:58 PM on Wednesday 22 Oct 2014 (Local Time) from PATE Reporting Station
Overcast Overcast  
Wind Chill: 21°   Ceiling: 2100
Heat Index: 30°   Visibility: 10mi
Dew Point: 24°   Wind: 10mph
Humidity: 79%   Direction: 350°N
Pressure: 29.84"   Gusts: NA
Location:  65.1617°N, 164.975°W
Report Text: PATE 222258Z AUTO 35009KT 10SM OVC021 M01/M04 A2984 RMK AO2 SLP118 T10111044 FZRANO
Loading
Personal Weather Stations






























Interactive Weather Map
Tropical Storm Tracking
New forecast layout! Learn more

10-Day Weather Forecast

Advertisements
Track Severe Weather on mobile